Time;durP1;ratioP1;P1;durP2;ratioP2;P2;SDS_P1;SDS_P2;PMS_P1;PMS_P2;Temp;Humidity;BMP_temperature;BMP_pressure;BME280_temperature;BME280_humidity;BME280_pressure;Samples;Min_cycle;Max_cycle;Signal;HPM_P1;HPM_P2
2023/09/04 00:00:35;;;;;;;;;;;;;;;;;;5034061;28;19964;-69
2023/09/04 00:03:01;;;;;;;;;;;;;;;;;;5038514;28;19924;-69
2023/09/04 00:05:27;;;;;;;;;;;;;;;;;;5049019;28;19924;-70
2023/09/04 00:07:53;;;;;;;;;;;;;;;;;;5044787;28;20382;-70
2023/09/04 00:10:19;;;;;;;;;;;;;;;;;;5043526;28;19932;-71
2023/09/04 00:12:45;;;;;;;;;;;;;;;;;;5032843;28;19935;-69
2023/09/04 00:15:11;;;;;;;;;;;;;;;;;;5037171;28;20375;-69
2023/09/04 00:17:37;;;;;;;;;;;;;;;;;;5043452;28;19967;-69
2023/09/04 00:20:03;;;;;;;;;;;;;;;;;;5051813;28;19970;-69
2023/09/04 00:22:30;;;;;;;;;;;;;;;;;;5050696;28;20438;-69
2023/09/04 00:24:55;;;;;;;;;;;;;;;;;;5051932;28;19932;-69
2023/09/04 00:27:23;;;;;;;;;;;;;;;;;;5048613;28;19936;-68
2023/09/04 00:29:49;;;;;;;;;;;;;;;;;;5016491;28;19971;-69
2023/09/04 00:32:15;;;;;;;;;;;;;;;;;;5043918;28;19925;-69
2023/09/04 00:34:40;;;;;;;;;;;;;;;;;;5055727;28;20039;-69
2023/09/04 00:37:09;;;;;;;;;;;;;;;;;;5054730;28;19924;-69
2023/09/04 00:39:35;;;;;;;;;;;;;;;;;;5044772;28;19925;-69
2023/09/04 00:42:01;;;;;;;;;;;;;;;;;;5049849;28;20496;-68
2023/09/04 00:44:27;;;;;;;;;;;;;;;;;;5042986;28;19925;-69
2023/09/04 00:46:53;;;;;;;;;;;;;;;;;;5056282;28;19920;-69
2023/09/04 00:49:19;;;;;;;;;;;;;;;;;;5044941;28;19936;-69
2023/09/04 00:51:45;;;;;;;;;;;;;;;;;;5048903;28;20421;-69
2023/09/04 00:54:11;;;;;;;;;;;;;;;;;;5056962;28;19924;-70
2023/09/04 00:56:37;;;;;;;;;;;;;;;;;;5047656;28;19925;-69
2023/09/04 00:59:02;;;;;;;;;;;;;;;;;;5054775;28;19935;-70
2023/09/04 01:01:28;;;;;;;;;;;;;;;;;;5052520;28;19956;-69
2023/09/04 01:03:54;;;;;;;;;;;;;;;;;;5051184;28;20832;-69
2023/09/04 01:06:20;;;;;;;;;;;;;;;;;;5039817;28;19926;-69
2023/09/04 01:08:46;;;;;;;;;;;;;;;;;;5110538;22;20443;-59
2023/09/04 01:11:12;;;;;;;;;;;;;;;;;;5054507;28;20361;-59
2023/09/04 01:13:38;;;;;;;;;;;;;;;;;;5060493;28;19928;-59
2023/09/04 01:16:04;;;;;;;;;;;;;;;;;;5064723;28;19924;-59
2023/09/04 01:18:30;;;;;;;;;;;;;;;;;;5045789;28;19928;-61
2023/09/04 01:20:56;;;;;;;;;;;;;;;;;;5063724;28;19924;-58
2023/09/04 01:23:22;;;;;;;;;;;;;;;;;;5063866;28;19966;-59
2023/09/04 01:25:48;;;;;;;;;;;;;;;;;;5060993;28;19925;-59
2023/09/04 01:28:14;;;;;;;;;;;;;;;;;;5060963;28;20398;-59
2023/09/04 01:30:39;;;;;;;;;;;;;;;;;;5062127;28;19931;-59
2023/09/04 01:33:05;;;;;;;;;;;;;;;;;;5057798;28;19975;-59
2023/09/04 01:35:31;;;;;;;;;;;;;;;;;;5059036;28;20444;-59
2023/09/04 01:37:57;;;;;;;;;;;;;;;;;;5061369;28;20048;-59
2023/09/04 01:40:23;;;;;;;;;;;;;;;;;;5062749;28;19925;-59
2023/09/04 01:42:49;;;;;;;;;;;;;;;;;;5063785;28;20408;-61
2023/09/04 01:45:15;;;;;;;;;;;;;;;;;;5063962;28;19924;-61
2023/09/04 01:47:41;;;;;;;;;;;;;;;;;;5062497;28;19932;-61
2023/09/04 01:50:07;;;;;;;;;;;;;;;;;;5063839;28;19929;-61
2023/09/04 01:52:33;;;;;;;;;;;;;;;;;;5059981;28;19994;-61
2023/09/04 01:54:59;;;;;;;;;;;;;;;;;;5063303;28;19964;-60
2023/09/04 01:57:25;;;;;;;;;;;;;;;;;;5044238;28;19963;-61
2023/09/04 01:59:51;;;;;;;;;;;;;;;;;;5059892;28;19925;-61
2023/09/04 02:02:17;;;;;;;;;;;;;;;;;;5042560;28;19925;-60
2023/09/04 02:04:43;;;;;;;;;;;;;;;;;;5061791;28;19928;-61
2023/09/04 02:07:10;;;;;;;;;;;;;;;;;;5053994;28;19932;-61
2023/09/04 02:09:36;;;;;;;;;;;;;;;;;;5060122;28;20374;-61
2023/09/04 02:12:02;;;;;;;;;;;;;;;;;;5061938;28;19935;-61
2023/09/04 02:14:28;;;;;;;;;;;;;;;;;;5061765;28;20002;-60
2023/09/04 02:16:54;;;;;;;;;;;;;;;;;;5062318;28;19967;-61
2023/09/04 02:19:19;;;;;;;;;;;;;;;;;;5058006;28;19964;-61
2023/09/04 02:21:45;;;;;;;;;;;;;;;;;;5037629;28;19971;-61
2023/09/04 02:24:11;;;;;;;;;;;;;;;;;;5042968;28;19935;-60
2023/09/04 02:26:37;;;;;;;;;;;;;;;;;;5063565;28;20362;-60
2023/09/04 02:29:03;;;;;;;;;;;;;;;;;;5055541;28;19925;-60
2023/09/04 02:31:29;;;;;;;;;;;;;;;;;;5048548;28;19932;-60
2023/09/04 02:33:55;;;;;;;;;;;;;;;;;;5051338;28;20001;-60
2023/09/04 02:36:23;;;;;;;;;;;;;;;;;;5054059;28;20488;-60
2023/09/04 02:38:49;;;;;;;;;;;;;;;;;;5062289;28;19931;-60
2023/09/04 02:41:14;;;;;;;;;;;;;;;;;;5062366;28;19925;-61
2023/09/04 02:43:40;;;;;;;;;;;;;;;;;;5062263;28;19935;-61
2023/09/04 02:46:06;;;;;;;;;;;;;;;;;;5062245;28;19924;-61
2023/09/04 02:48:32;;;;;;;;;;;;;;;;;;5058323;28;20349;-61
2023/09/04 02:50:58;;;;;;;;;;;;;;;;;;5062380;28;19924;-60
2023/09/04 02:53:27;;;;;;;;;;;;;;;;;;5058113;28;20007;-60
2023/09/04 02:55:53;;;;;;;;;;;;;;;;;;5055670;28;19932;-60
2023/09/04 02:58:19;;;;;;;;;;;;;;;;;;5056853;28;20623;-60
2023/09/04 03:00:45;;;;;;;;;;;;;;;;;;5059699;28;19924;-61
2023/09/04 03:03:11;;;;;;;;;;;;;;;;;;5054215;28;19954;-62
2023/09/04 03:05:37;;;;;;;;;;;;;;;;;;5062186;28;19925;-60
2023/09/04 03:08:03;;;;;;;;;;;;;;;;;;5029682;28;20457;-60
2023/09/04 03:10:28;;;;;;;;;;;;;;;;;;5056451;28;19924;-60
2023/09/04 03:12:54;;;;;;;;;;;;;;;;;;5046723;28;19924;-60
2023/09/04 03:15:20;;;;;;;;;;;;;;;;;;5055710;28;20677;-60
2023/09/04 03:17:46;;;;;;;;;;;;;;;;;;5061652;28;20640;-61
2023/09/04 03:20:13;;;;;;;;;;;;;;;;;;5060969;28;19929;-61
2023/09/04 03:22:40;;;;;;;;;;;;;;;;;;5060076;28;19925;-60
2023/09/04 03:25:06;;;;;;;;;;;;;;;;;;5061244;28;19979;-61
2023/09/04 03:27:31;;;;;;;;;;;;;;;;;;5054415;28;19971;-60
2023/09/04 03:29:58;;;;;;;;;;;;;;;;;;5059583;28;20377;-60
2023/09/04 03:32:24;;;;;;;;;;;;;;;;;;5052014;28;19933;-61
2023/09/04 03:34:50;;;;;;;;;;;;;;;;;;5041723;28;19978;-60
2023/09/04 03:37:15;;;;;;;;;;;;;;;;;;5054909;28;19935;-61
2023/09/04 03:39:41;;;;;;;;;;;;;;;;;;5060017;28;19924;-60
2023/09/04 03:42:07;;;;;;;;;;;;;;;;;;5058970;28;19925;-60
2023/09/04 03:44:33;;;;;;;;;;;;;;;;;;5033831;28;19932;-61
2023/09/04 03:46:59;;;;;;;;;;;;;;;;;;5061484;28;19925;-61
2023/09/04 03:49:25;;;;;;;;;;;;;;;;;;5061044;28;20662;-60
2023/09/04 03:51:51;;;;;;;;;;;;;;;;;;5057422;28;19931;-61
2023/09/04 03:54:17;;;;;;;;;;;;;;;;;;5061071;28;19924;-61
2023/09/04 03:56:43;;;;;;;;;;;;;;;;;;5060805;28;20073;-61
2023/09/04 03:59:09;;;;;;;;;;;;;;;;;;5062429;28;20332;-61
2023/09/04 04:01:35;;;;;;;;;;;;;;;;;;5062483;28;19971;-60
2023/09/04 04:04:01;;;;;;;;;;;;;;;;;;5058777;28;20015;-60
2023/09/04 04:06:27;;;;;;;;;;;;;;;;;;5055792;28;20333;-60
2023/09/04 04:08:55;;;;;;;;;;;;;;;;;;5061629;28;19998;-61
2023/09/04 04:11:21;;;;;;;;;;;;;;;;;;5058526;28;19956;-60
2023/09/04 04:13:47;;;;;;;;;;;;;;;;;;5056734;28;20020;-60
2023/09/04 04:16:13;;;;;;;;;;;;;;;;;;5057138;28;20370;-62
2023/09/04 04:18:39;;;;;;;;;;;;;;;;;;5063020;28;19931;-61
2023/09/04 04:21:05;;;;;;;;;;;;;;;;;;5061104;28;20328;-61
2023/09/04 04:23:33;;;;;;;;;;;;;;;;;;5059334;28;19974;-60
2023/09/04 04:25:58;;;;;;;;;;;;;;;;;;5065242;28;19932;-61
2023/09/04 04:28:24;;;;;;;;;;;;;;;;;;5065142;28;19928;-61
2023/09/04 04:30:50;;;;;;;;;;;;;;;;;;5065131;28;20525;-61
2023/09/04 04:33:16;;;;;;;;;;;;;;;;;;5056597;28;20348;-61
2023/09/04 04:35:42;;;;;;;;;;;;;;;;;;5064561;28;20450;-60
2023/09/04 04:38:08;;;;;;;;;;;;;;;;;;5065509;28;19933;-60
2023/09/04 04:40:34;;;;;;;;;;;;;;;;;;5063327;28;19925;-61
2023/09/04 04:43:00;;;;;;;;;;;;;;;;;;5065127;28;19925;-61
2023/09/04 04:45:26;;;;;;;;;;;;;;;;;;5061861;28;20028;-60
2023/09/04 04:47:52;;;;;;;;;;;;;;;;;;5062889;28;20011;-60
2023/09/04 04:50:18;;;;;;;;;;;;;;;;;;5057814;28;19952;-60
2023/09/04 04:52:44;;;;;;;;;;;;;;;;;;5059600;28;19974;-60
2023/09/04 04:55:10;;;;;;;;;;;;;;;;;;5058090;28;19924;-59
2023/09/04 04:57:36;;;;;;;;;;;;;;;;;;5042972;28;19925;-61
2023/09/04 05:00:07;;;;;;;;;;;;;;;;;;5057939;28;20400;-62
2023/09/04 05:02:33;;;;;;;;;;;;;;;;;;5061450;28;20666;-61
2023/09/04 05:04:59;;;;;;;;;;;;;;;;;;5062545;28;19924;-60
2023/09/04 05:07:24;;;;;;;;;;;;;;;;;;5052930;28;19925;-60
2023/09/04 05:09:50;;;;;;;;;;;;;;;;;;5062883;28;20419;-60
2023/09/04 05:12:16;;;;;;;;;;;;;;;;;;5061251;28;20383;-61
2023/09/04 05:14:42;;;;;;;;;;;;;;;;;;5064169;28;19928;-61
2023/09/04 05:17:08;;;;;;;;;;;;;;;;;;5062657;28;19924;-60
2023/09/04 05:19:34;;;;;;;;;;;;;;;;;;5062133;28;20419;-61
2023/09/04 05:22:00;;;;;;;;;;;;;;;;;;5061736;28;19925;-61
2023/09/04 05:24:26;;;;;;;;;;;;;;;;;;5060195;28;19928;-61
2023/09/04 05:26:52;;;;;;;;;;;;;;;;;;5057633;28;19928;-61
2023/09/04 05:29:18;;;;;;;;;;;;;;;;;;5061597;28;20436;-61
2023/09/04 05:31:44;;;;;;;;;;;;;;;;;;5056938;28;19925;-61
2023/09/04 05:34:10;;;;;;;;;;;;;;;;;;5052686;28;19924;-61
2023/09/04 05:36:36;;;;;;;;;;;;;;;;;;5062520;28;19929;-61
2023/09/04 05:39:02;;;;;;;;;;;;;;;;;;5057017;28;19928;-61
2023/09/04 05:41:28;;;;;;;;;;;;;;;;;;5064001;28;20331;-61
2023/09/04 05:43:54;;;;;;;;;;;;;;;;;;5054161;28;19925;-60
2023/09/04 05:46:20;;;;;;;;;;;;;;;;;;5056797;28;19928;-60
2023/09/04 05:48:46;;;;;;;;;;;;;;;;;;5058806;28;19924;-60
2023/09/04 05:51:12;;;;;;;;;;;;;;;;;;5057616;28;19932;-60
2023/09/04 05:53:38;;;;;;;;;;;;;;;;;;5058418;28;20003;-60
2023/09/04 05:56:04;;;;;;;;;;;;;;;;;;5053437;28;20388;-60
2023/09/04 05:58:30;;;;;;;;;;;;;;;;;;5062128;28;20130;-60
2023/09/04 06:00:56;;;;;;;;;;;;;;;;;;5060418;28;20034;-59
2023/09/04 06:03:22;;;;;;;;;;;;;;;;;;5059062;28;19936;-59
2023/09/04 06:05:48;;;;;;;;;;;;;;;;;;5058157;28;19925;-59
2023/09/04 06:08:14;;;;;;;;;;;;;;;;;;5063956;28;19932;-60
2023/09/04 06:10:40;;;;;;;;;;;;;;;;;;5063826;28;19925;-59
2023/09/04 06:13:06;;;;;;;;;;;;;;;;;;5062920;28;19924;-59
2023/09/04 06:15:32;;;;;;;;;;;;;;;;;;5062489;28;20430;-59
2023/09/04 06:17:57;;;;;;;;;;;;;;;;;;5044352;28;20370;-59
2023/09/04 06:20:23;;;;;;;;;;;;;;;;;;5063492;28;19932;-59
2023/09/04 06:22:49;;;;;;;;;;;;;;;;;;5060541;28;19947;-59
2023/09/04 06:25:17;;;;;;;;;;;;;;;;;;5062786;28;19986;-60
2023/09/04 06:27:43;;;;;;;;;;;;;;;;;;5056453;28;19925;-60
2023/09/04 06:30:09;;;;;;;;;;;;;;;;;;5063383;28;19932;-60
2023/09/04 06:32:35;;;;;;;;;;;;;;;;;;5053157;28;19947;-61
2023/09/04 06:35:01;;;;;;;;;;;;;;;;;;5055954;28;20725;-60
2023/09/04 06:37:26;;;;;;;;;;;;;;;;;;5056326;28;20694;-60
2023/09/04 06:39:52;;;;;;;;;;;;;;;;;;5062582;28;19929;-60
2023/09/04 06:42:18;;;;;;;;;;;;;;;;;;5061053;28;19932;-60
2023/09/04 06:44:44;;;;;;;;;;;;;;;;;;5051320;28;19925;-60
2023/09/04 06:47:10;;;;;;;;;;;;;;;;;;5059820;28;20717;-60
2023/09/04 06:49:36;;;;;;;;;;;;;;;;;;5062612;28;19972;-60
2023/09/04 06:52:02;;;;;;;;;;;;;;;;;;5056972;28;19982;-60
2023/09/04 06:54:29;;;;;;;;;;;;;;;;;;5059410;28;19925;-60
2023/09/04 06:56:54;;;;;;;;;;;;;;;;;;5056907;28;20471;-60
2023/09/04 06:59:20;;;;;;;;;;;;;;;;;;5061291;28;19931;-60
2023/09/04 07:01:46;;;;;;;;;;;;;;;;;;5054826;28;19929;-60
2023/09/04 07:04:12;;;;;;;;;;;;;;;;;;5060972;28;19935;-61
2023/09/04 07:06:38;;;;;;;;;;;;;;;;;;5053522;28;19920;-60
2023/09/04 07:09:04;;;;;;;;;;;;;;;;;;5060970;28;19976;-60
2023/09/04 07:11:30;;;;;;;;;;;;;;;;;;5056566;28;19928;-60
2023/09/04 07:13:56;;;;;;;;;;;;;;;;;;5056452;28;20064;-60
2023/09/04 07:16:22;;;;;;;;;;;;;;;;;;5062971;28;20370;-60
2023/09/04 07:18:48;;;;;;;;;;;;;;;;;;5050647;28;19925;-61
2023/09/04 07:21:14;;;;;;;;;;;;;;;;;;5059390;28;19924;-61
2023/09/04 07:23:40;;;;;;;;;;;;;;;;;;5062516;28;19932;-60
2023/09/04 07:26:06;;;;;;;;;;;;;;;;;;5059962;28;20413;-60
2023/09/04 07:28:31;;;;;;;;;;;;;;;;;;5062907;28;19966;-60
2023/09/04 07:30:57;;;;;;;;;;;;;;;;;;5043818;28;19921;-61
2023/09/04 07:33:23;;;;;;;;;;;;;;;;;;5057027;28;20591;-60
2023/09/04 07:35:49;;;;;;;;;;;;;;;;;;5057280;28;20558;-60
2023/09/04 07:38:15;;;;;;;;;;;;;;;;;;5060233;28;19920;-60
2023/09/04 07:40:41;;;;;;;;;;;;;;;;;;5058761;28;20008;-60
2023/09/04 07:43:07;;;;;;;;;;;;;;;;;;5059187;28;19970;-60
2023/09/04 07:45:33;;;;;;;;;;;;;;;;;;5060837;28;19928;-60
2023/09/04 07:47:59;;;;;;;;;;;;;;;;;;5059990;28;19932;-60
2023/09/04 07:50:25;;;;;;;;;;;;;;;;;;5041256;28;19921;-60
2023/09/04 07:52:51;;;;;;;;;;;;;;;;;;5066703;28;20360;-60
2023/09/04 07:55:17;;;;;;;;;;;;;;;;;;5056599;28;19932;-60
2023/09/04 07:57:43;;;;;;;;;;;;;;;;;;5052922;28;19953;-60
2023/09/04 08:00:09;;;;;;;;;;;;;;;;;;5054053;28;20108;-60
2023/09/04 08:02:35;;;;;;;;;;;;;;;;;;5054500;28;20466;-60
2023/09/04 08:05:01;;;;;;;;;;;;;;;;;;5051412;28;20513;-60
2023/09/04 08:07:27;;;;;;;;;;;;;;;;;;5062414;28;19924;-60
2023/09/04 08:09:55;;;;;;;;;;;;;;;;;;5054904;28;20286;-60
2023/09/04 08:12:21;;;;;;;;;;;;;;;;;;5053558;28;20007;-60
2023/09/04 08:14:47;;;;;;;;;;;;;;;;;;5046261;28;20416;-60
2023/09/04 08:17:13;;;;;;;;;;;;;;;;;;5059149;28;19931;-61
2023/09/04 08:19:39;;;;;;;;;;;;;;;;;;5065334;28;19928;-60
2023/09/04 08:22:05;;;;;;;;;;;;;;;;;;5063309;28;19929;-60
2023/09/04 08:24:31;;;;;;;;;;;;;;;;;;5065852;28;19931;-60
2023/09/04 08:26:57;;;;;;;;;;;;;;;;;;5062234;28;19921;-60
2023/09/04 08:29:23;;;;;;;;;;;;;;;;;;5060138;28;19964;-60
2023/09/04 08:31:49;;;;;;;;;;;;;;;;;;5065652;28;20021;-60
2023/09/04 08:34:15;;;;;;;;;;;;;;;;;;5057769;28;20088;-60
2023/09/04 08:36:42;;;;;;;;;;;;;;;;;;5060274;28;19924;-60
2023/09/04 08:39:08;;;;;;;;;;;;;;;;;;5056663;28;19927;-60
2023/09/04 08:41:33;;;;;;;;;;;;;;;;;;5062198;28;19924;-60
2023/09/04 08:43:59;;;;;;;;;;;;;;;;;;5064760;28;19925;-60
2023/09/04 08:46:25;;;;;;;;;;;;;;;;;;5065694;28;20381;-60
2023/09/04 08:48:52;;;;;;;;;;;;;;;;;;5062810;28;20286;-60
2023/09/04 08:51:18;;;;;;;;;;;;;;;;;;5061987;28;20417;-60
2023/09/04 08:53:44;;;;;;;;;;;;;;;;;;5055994;28;19947;-60
2023/09/04 08:56:10;;;;;;;;;;;;;;;;;;5060386;28;19924;-60
2023/09/04 08:58:36;;;;;;;;;;;;;;;;;;5053330;28;19925;-60
2023/09/04 09:01:03;;;;;;;;;;;;;;;;;;5056557;28;20221;-60
2023/09/04 09:03:29;;;;;;;;;;;;;;;;;;5056054;28;19931;-60
2023/09/04 09:05:56;;;;;;;;;;;;;;;;;;5055310;28;20294;-60
2023/09/04 09:08:21;;;;;;;;;;;;;;;;;;5059221;28;19975;-60
2023/09/04 09:10:47;;;;;;;;;;;;;;;;;;5042500;28;19936;-60
2023/09/04 09:13:14;;;;;;;;;;;;;;;;;;5054096;28;19928;-60
2023/09/04 09:15:40;;;;;;;;;;;;;;;;;;5053649;28;20020;-60
2023/09/04 09:18:06;;;;;;;;;;;;;;;;;;5050905;28;20504;-60
2023/09/04 09:20:32;;;;;;;;;;;;;;;;;;5052686;28;20027;-60
2023/09/04 09:22:58;;;;;;;;;;;;;;;;;;5062207;28;19928;-60
2023/09/04 09:25:24;;;;;;;;;;;;;;;;;;5065384;28;19932;-60
2023/09/04 09:27:50;;;;;;;;;;;;;;;;;;5059796;28;19924;-60
2023/09/04 09:30:16;;;;;;;;;;;;;;;;;;5060670;28;19924;-60
2023/09/04 09:32:42;;;;;;;;;;;;;;;;;;5057582;28;19978;-60
2023/09/04 09:35:08;;;;;;;;;;;;;;;;;;5059173;28;20524;-60
2023/09/04 09:37:34;;;;;;;;;;;;;;;;;;5052192;28;19925;-60
2023/09/04 09:40:00;;;;;;;;;;;;;;;;;;5054747;28;20017;-60
2023/09/04 09:42:26;;;;;;;;;;;;;;;;;;5055415;28;20081;-60
2023/09/04 09:44:52;;;;;;;;;;;;;;;;;;5063253;28;20584;-60
2023/09/04 09:47:18;;;;;;;;;;;;;;;;;;5061608;28;19931;-60
2023/09/04 09:49:44;;;;;;;;;;;;;;;;;;5062662;28;20432;-60
2023/09/04 09:52:09;;;;;;;;;;;;;;;;;;5057826;28;19920;-60
2023/09/04 09:54:36;;;;;;;;;;;;;;;;;;5064468;28;19924;-60
2023/09/04 09:57:01;;;;;;;;;;;;;;;;;;5052907;28;19939;-60
2023/09/04 09:59:27;;;;;;;;;;;;;;;;;;5055519;28;19924;-60
2023/09/04 10:01:53;;;;;;;;;;;;;;;;;;5050420;28;20316;-60
2023/09/04 10:04:21;;;;;;;;;;;;;;;;;;5061161;28;19932;-60
2023/09/04 10:06:47;;;;;;;;;;;;;;;;;;5030413;28;19925;-60
2023/09/04 10:09:13;;;;;;;;;;;;;;;;;;5049188;28;19952;-60
2023/09/04 10:11:39;;;;;;;;;;;;;;;;;;5038789;28;19925;-60
2023/09/04 10:14:05;;;;;;;;;;;;;;;;;;5044520;28;19925;-60
2023/09/04 10:16:31;;;;;;;;;;;;;;;;;;5051324;28;19981;-60
2023/09/04 10:18:57;;;;;;;;;;;;;;;;;;5062698;28;20316;-60
2023/09/04 10:21:23;;;;;;;;;;;;;;;;;;5062336;28;20332;-60
2023/09/04 10:23:49;;;;;;;;;;;;;;;;;;5060126;28;19924;-60
2023/09/04 10:26:15;;;;;;;;;;;;;;;;;;5056124;28;19970;-61
2023/09/04 10:28:41;;;;;;;;;;;;;;;;;;5064205;28;19976;-60
2023/09/04 10:31:07;;;;;;;;;;;;;;;;;;5063488;28;19931;-60
2023/09/04 10:33:33;;;;;;;;;;;;;;;;;;5055920;28;19925;-60
2023/09/04 10:36:00;;;;;;;;;;;;;;;;;;5062949;28;19924;-60
2023/09/04 10:38:26;;;;;;;;;;;;;;;;;;5063334;28;19924;-60
2023/09/04 10:40:52;;;;;;;;;;;;;;;;;;5031732;28;19928;-60
2023/09/04 10:43:18;;;;;;;;;;;;;;;;;;5060889;28;19969;-60
2023/09/04 10:45:44;;;;;;;;;;;;;;;;;;5063073;28;20561;-60
2023/09/04 10:48:10;;;;;;;;;;;;;;;;;;5060811;28;19924;-60
2023/09/04 10:50:36;;;;;;;;;;;;;;;;;;5060084;28;19924;-60
2023/09/04 10:53:02;;;;;;;;;;;;;;;;;;5059108;28;20315;-61
2023/09/04 10:55:28;;;;;;;;;;;;;;;;;;5059172;28;19924;-60
2023/09/04 10:57:57;;;;;;;;;;;;;;;;;;5062635;28;19969;-60
2023/09/04 11:00:23;;;;;;;;;;;;;;;;;;5049828;28;19925;-59
2023/09/04 11:02:49;;;;;;;;;;;;;;;;;;5053754;28;19925;-59
2023/09/04 11:05:15;;;;;;;;;;;;;;;;;;5042162;28;20415;-60
2023/09/04 11:07:41;;;;;;;;;;;;;;;;;;5060705;28;20062;-60
2023/09/04 11:10:07;;;;;;;;;;;;;;;;;;5048032;28;20322;-60
2023/09/04 11:12:35;;;;;;;;;;;;;;;;;;5060907;28;20588;-61
2023/09/04 11:15:00;;;;;;;;;;;;;;;;;;5059142;28;20370;-60
2023/09/04 11:17:26;;;;;;;;;;;;;;;;;;5059611;28;19950;-60
2023/09/04 11:19:52;;;;;;;;;;;;;;;;;;5060686;28;20237;-60
2023/09/04 11:22:18;;;;;;;;;;;;;;;;;;5060365;28;19928;-60
2023/09/04 11:24:44;;;;;;;;;;;;;;;;;;5060127;28;19971;-60
2023/09/04 11:27:10;;;;;;;;;;;;;;;;;;5060402;28;19934;-60
2023/09/04 11:29:36;;;;;;;;;;;;;;;;;;5057532;28;19921;-60
2023/09/04 11:32:02;;;;;;;;;;;;;;;;;;5057927;28;20541;-60
2023/09/04 11:34:28;;;;;;;;;;;;;;;;;;5055150;28;20035;-60
2023/09/04 11:36:54;;;;;;;;;;;;;;;;;;5058648;28;20028;-60
2023/09/04 11:39:20;;;;;;;;;;;;;;;;;;5054379;28;19933;-60
2023/09/04 11:41:46;;;;;;;;;;;;;;;;;;5057733;28;20289;-60
2023/09/04 11:44:12;;;;;;;;;;;;;;;;;;5059155;28;19932;-61
2023/09/04 11:46:38;;;;;;;;;;;;;;;;;;5053531;28;19935;-60
2023/09/04 11:49:04;;;;;;;;;;;;;;;;;;5057659;28;19920;-60
2023/09/04 11:51:30;;;;;;;;;;;;;;;;;;5056230;28;19929;-60
2023/09/04 11:53:55;;;;;;;;;;;;;;;;;;5051890;28;21579;-60
2023/09/04 11:56:21;;;;;;;;;;;;;;;;;;5043843;28;19933;-60
2023/09/04 11:58:47;;;;;;;;;;;;;;;;;;5022309;28;19977;-59
2023/09/04 12:01:13;;;;;;;;;;;;;;;;;;5049146;28;19925;-60
2023/09/04 12:03:39;;;;;;;;;;;;;;;;;;5060283;28;19954;-59
2023/09/04 12:06:06;;;;;;;;;;;;;;;;;;5061700;28;19924;-60
2023/09/04 12:08:32;;;;;;;;;;;;;;;;;;5057590;28;20339;-60
2023/09/04 12:10:58;;;;;;;;;;;;;;;;;;5055439;28;19925;-60
2023/09/04 12:13:24;;;;;;;;;;;;;;;;;;5056009;28;19924;-60
2023/09/04 12:15:50;;;;;;;;;;;;;;;;;;5051394;28;20020;-60
2023/09/04 12:18:16;;;;;;;;;;;;;;;;;;5054141;28;19925;-59
2023/09/04 12:20:42;;;;;;;;;;;;;;;;;;5055032;28;19925;-60
2023/09/04 12:23:07;;;;;;;;;;;;;;;;;;5052205;28;20269;-60
2023/09/04 12:25:35;;;;;;;;;;;;;;;;;;5062018;28;19924;-59
2023/09/04 12:28:03;;;;;;;;;;;;;;;;;;5061772;28;19978;-60
2023/09/04 12:30:29;;;;;;;;;;;;;;;;;;5045580;28;20618;-60
2023/09/04 12:32:55;;;;;;;;;;;;;;;;;;5056029;28;19931;-60
2023/09/04 12:35:21;;;;;;;;;;;;;;;;;;5061534;28;19929;-60
2023/09/04 12:37:47;;;;;;;;;;;;;;;;;;5061644;28;19931;-60
2023/09/04 12:40:13;;;;;;;;;;;;;;;;;;5065631;28;20507;-60
2023/09/04 12:42:39;;;;;;;;;;;;;;;;;;5057953;28;20378;-60
2023/09/04 12:45:08;;;;;;;;;;;;;;;;;;5063411;28;19942;-59
2023/09/04 12:47:34;;;;;;;;;;;;;;;;;;5050339;28;20007;-59
2023/09/04 12:50:00;;;;;;;;;;;;;;;;;;5065835;28;20400;-59
2023/09/04 12:52:26;;;;;;;;;;;;;;;;;;5061427;28;19932;-59
2023/09/04 12:54:52;;;;;;;;;;;;;;;;;;5063640;28;19935;-60
2023/09/04 12:57:18;;;;;;;;;;;;;;;;;;5055301;28;20300;-59
2023/09/04 12:59:44;;;;;;;;;;;;;;;;;;5056218;28;19932;-60
2023/09/04 13:02:10;;;;;;;;;;;;;;;;;;5057161;28;19924;-59
2023/09/04 13:04:36;;;;;;;;;;;;;;;;;;5065096;28;20013;-60
2023/09/04 13:07:01;;;;;;;;;;;;;;;;;;5056919;28;20307;-60
2023/09/04 13:09:27;;;;;;;;;;;;;;;;;;5061664;28;19924;-60
2023/09/04 13:11:56;;;;;;;;;;;;;;;;;;5050961;28;19931;-60
2023/09/04 13:14:22;;;;;;;;;;;;;;;;;;5044148;28;19932;-60
2023/09/04 13:16:48;;;;;;;;;;;;;;;;;;5063851;28;20332;-59
2023/09/04 13:19:13;;;;;;;;;;;;;;;;;;5062100;28;19968;-60
2023/09/04 13:21:40;;;;;;;;;;;;;;;;;;5061441;28;19979;-60
2023/09/04 13:24:06;;;;;;;;;;;;;;;;;;5064171;28;19928;-60
2023/09/04 13:26:31;;;;;;;;;;;;;;;;;;5061034;28;19936;-60
2023/09/04 13:28:57;;;;;;;;;;;;;;;;;;5056328;28;19933;-59
2023/09/04 13:31:23;;;;;;;;;;;;;;;;;;5055900;28;20382;-60
2023/09/04 13:33:49;;;;;;;;;;;;;;;;;;5055767;28;19967;-60
2023/09/04 13:36:15;;;;;;;;;;;;;;;;;;5053579;28;19964;-59
2023/09/04 13:38:41;;;;;;;;;;;;;;;;;;5055962;28;19920;-60
2023/09/04 13:41:07;;;;;;;;;;;;;;;;;;5050089;28;19978;-60
2023/09/04 13:43:33;;;;;;;;;;;;;;;;;;5063367;28;19928;-60
2023/09/04 13:45:59;;;;;;;;;;;;;;;;;;5063228;28;19925;-60
2023/09/04 13:48:26;;;;;;;;;;;;;;;;;;5058397;28;19964;-59
2023/09/04 13:50:52;;;;;;;;;;;;;;;;;;5063739;28;20027;-60
2023/09/04 13:53:18;;;;;;;;;;;;;;;;;;5059975;28;20430;-60
2023/09/04 13:55:44;;;;;;;;;;;;;;;;;;5062932;28;20027;-60
2023/09/04 13:58:10;;;;;;;;;;;;;;;;;;5040460;28;19971;-60
2023/09/04 14:00:36;;;;;;;;;;;;;;;;;;5063285;28;20011;-60
2023/09/04 14:03:02;;;;;;;;;;;;;;;;;;5062882;28;19935;-60
2023/09/04 14:05:29;;;;;;;;;;;;;;;;;;5062236;28;19924;-60
2023/09/04 14:07:55;;;;;;;;;;;;;;;;;;5057982;28;19925;-60
2023/09/04 14:10:21;;;;;;;;;;;;;;;;;;5062715;28;20417;-60
2023/09/04 14:12:47;;;;;;;;;;;;;;;;;;5058211;28;19924;-60
2023/09/04 14:15:12;;;;;;;;;;;;;;;;;;5059323;28;19931;-60
2023/09/04 14:17:38;;;;;;;;;;;;;;;;;;5059562;28;19985;-59
2023/09/04 14:20:04;;;;;;;;;;;;;;;;;;5058588;28;19924;-59
2023/09/04 14:22:30;;;;;;;;;;;;;;;;;;5062348;28;20053;-59
2023/09/04 14:24:56;;;;;;;;;;;;;;;;;;5044040;28;19929;-59
2023/09/04 14:27:22;;;;;;;;;;;;;;;;;;5055283;28;20582;-59
2023/09/04 14:29:48;;;;;;;;;;;;;;;;;;5063323;28;20588;-60
2023/09/04 14:32:14;;;;;;;;;;;;;;;;;;5060924;28;20308;-60
2023/09/04 14:34:40;;;;;;;;;;;;;;;;;;5059164;28;19955;-59
2023/09/04 14:37:06;;;;;;;;;;;;;;;;;;5058011;28;20293;-60
2023/09/04 14:39:32;;;;;;;;;;;;;;;;;;5061158;28;20408;-59
2023/09/04 14:41:58;;;;;;;;;;;;;;;;;;5059827;28;20428;-59
2023/09/04 14:44:24;;;;;;;;;;;;;;;;;;5063520;28;19928;-59
2023/09/04 14:46:50;;;;;;;;;;;;;;;;;;5059815;28;19931;-59
2023/09/04 14:49:16;;;;;;;;;;;;;;;;;;5063393;28;20058;-59
2023/09/04 14:51:41;;;;;;;;;;;;;;;;;;5039858;28;20011;-59
2023/09/04 14:54:07;;;;;;;;;;;;;;;;;;5056728;28;19997;-60
2023/09/04 14:56:33;;;;;;;;;;;;;;;;;;5060799;28;19933;-60
2023/09/04 14:58:59;;;;;;;;;;;;;;;;;;5052328;28;20103;-59
2023/09/04 15:01:25;;;;;;;;;;;;;;;;;;5053764;28;19932;-60
2023/09/04 15:03:51;;;;;;;;;;;;;;;;;;5063097;28;19924;-60
2023/09/04 15:06:17;;;;;;;;;;;;;;;;;;5032564;28;20023;-60
2023/09/04 15:08:44;;;;;;;;;;;;;;;;;;5055483;28;19947;-60
2023/09/04 15:11:10;;;;;;;;;;;;;;;;;;5060514;28;19924;-60
2023/09/04 15:13:36;;;;;;;;;;;;;;;;;;5052597;28;19931;-60
2023/09/04 15:16:02;;;;;;;;;;;;;;;;;;5062720;28;20164;-59
2023/09/04 15:18:28;;;;;;;;;;;;;;;;;;5053299;28;19975;-59
2023/09/04 15:20:54;;;;;;;;;;;;;;;;;;5056677;28;20033;-60
2023/09/04 15:23:21;;;;;;;;;;;;;;;;;;5061094;28;19925;-60
2023/09/04 15:25:47;;;;;;;;;;;;;;;;;;5061620;28;19924;-60
2023/09/04 15:28:13;;;;;;;;;;;;;;;;;;5049889;28;19931;-60
2023/09/04 15:30:39;;;;;;;;;;;;;;;;;;5054029;28;19924;-60
2023/09/04 15:33:05;;;;;;;;;;;;;;;;;;5056163;28;20031;-59
2023/09/04 15:35:31;;;;;;;;;;;;;;;;;;5060638;28;19929;-59
2023/09/04 15:37:57;;;;;;;;;;;;;;;;;;5056227;28;19924;-59
2023/09/04 15:40:23;;;;;;;;;;;;;;;;;;5049529;28;19931;-59
2023/09/04 15:42:49;;;;;;;;;;;;;;;;;;5056001;28;20414;-59
2023/09/04 15:45:15;;;;;;;;;;;;;;;;;;5061381;28;19925;-59
2023/09/04 15:47:42;;;;;;;;;;;;;;;;;;5056513;28;19928;-59
2023/09/04 15:50:08;;;;;;;;;;;;;;;;;;5043237;28;20668;-59
2023/09/04 15:52:34;;;;;;;;;;;;;;;;;;5061495;28;19964;-60
2023/09/04 15:55:00;;;;;;;;;;;;;;;;;;5038602;28;19931;-59
2023/09/04 15:57:25;;;;;;;;;;;;;;;;;;5054175;28;20012;-59
2023/09/04 15:59:51;;;;;;;;;;;;;;;;;;5057662;28;20020;-61
2023/09/04 16:02:17;;;;;;;;;;;;;;;;;;5060560;28;20452;-60
2023/09/04 16:04:43;;;;;;;;;;;;;;;;;;5052042;28;19925;-60
2023/09/04 16:07:09;;;;;;;;;;;;;;;;;;5059101;28;19929;-60
2023/09/04 16:09:35;;;;;;;;;;;;;;;;;;5061500;28;19925;-60
2023/09/04 16:12:02;;;;;;;;;;;;;;;;;;5061914;28;20359;-60
2023/09/04 16:14:28;;;;;;;;;;;;;;;;;;5059764;28;19932;-59
2023/09/04 16:16:54;;;;;;;;;;;;;;;;;;5054230;28;19929;-60
2023/09/04 16:19:19;;;;;;;;;;;;;;;;;;5062239;28;20062;-60
2023/09/04 16:21:47;;;;;;;;;;;;;;;;;;5065794;28;20320;-60
2023/09/04 16:24:13;;;;;;;;;;;;;;;;;;5062080;28;19929;-61
2023/09/04 16:26:39;;;;;;;;;;;;;;;;;;5062092;28;19932;-60
2023/09/04 16:29:05;;;;;;;;;;;;;;;;;;5061164;28;20002;-60
2023/09/04 16:31:31;;;;;;;;;;;;;;;;;;5060708;28;19964;-62
2023/09/04 16:33:57;;;;;;;;;;;;;;;;;;5060020;28;20015;-60
2023/09/04 16:36:23;;;;;;;;;;;;;;;;;;5058498;28;20016;-62